Terminal Aerodrome Forecast
Issued by NWS Blacksburg, VA

Current Version | Previous Version | Text Only | Print | Product List | Glossary Off
Versions: 1 2 3 4 5 6 7 8 9 10 11 12 13 14 15 16 17

000
FTUS41 KRNK 271720
TAFBLF
TAF
KBLF 271720Z 2718/2818 27009KT P6SM VCTS BKN040CB
     FM280200 17004KT P6SM BKN060
     FM281200 18004KT P6SM VCSH BKN025
     FM281500 23009KT P6SM SCT040=

USA.gov is the U.S. government's official web portal to all federal, state and local government web resources and services.